Time;durP1;ratioP1;P1;durP2;ratioP2;P2;SDS_P1;SDS_P2;PMS_P1;PMS_P2;Temp;Humidity;BMP_temperature;BMP_pressure;BME280_temperature;BME280_humidity;BME280_pressure;Samples;Min_cycle;Max_cycle;Signal;HPM_P1;HPM_P2
2023/01/28 00:01:03;;;;;;;91.40;28.98;;;0.70;99.90;;;-0.71;100.00;97913.94;5072797;28;20442;-77
2023/01/28 00:03:29;;;;;;;88.33;28.97;;;0.60;99.90;;;-0.71;100.00;97901.78;5072681;28;20497;-78
2023/01/28 00:06:02;;;;;;;96.90;30.17;;;0.70;99.90;;;-0.71;100.00;97904.38;5072602;28;20400;-77
2023/01/28 00:08:28;;;;;;;87.28;28.40;;;0.60;99.90;;;-0.71;100.00;97899.16;5072578;28;20422;-77
2023/01/28 00:10:53;;;;;;;91.65;28.73;;;0.60;99.90;;;-0.68;100.00;97904.03;5072595;28;20431;-78
2023/01/28 00:13:19;;;;;;;88.50;28.08;;;0.70;99.90;;;-0.73;100.00;97895.91;5072352;28;20460;-77
2023/01/28 00:15:54;;;;;;;92.75;27.65;;;0.60;99.90;;;-0.73;100.00;97893.31;5072446;28;20406;-77
2023/01/28 00:18:20;;;;;;;95.93;28.70;;;0.60;99.90;;;-0.72;100.00;97889.75;5072520;28;20450;-76
2023/01/28 00:20:57;;;;;;;94.20;29.08;;;0.60;99.90;;;-0.70;100.00;97899.97;5072479;28;20399;-76
2023/01/28 00:23:23;;;;;;;96.32;29.00;;;0.60;99.90;;;-0.70;100.00;97900.78;5072153;28;20412;-76
2023/01/28 00:25:49;;;;;;;94.43;28.52;;;0.70;99.90;;;-0.71;100.00;97901.78;5086746;22;20443;-76
2023/01/28 00:28:15;;;;;;;98.25;28.88;;;0.70;99.90;;;-0.68;100.00;97895.44;5071104;28;20411;-76
2023/01/28 00:30:41;;;;;;;99.97;29.00;;;0.70;99.90;;;-0.68;100.00;97900.63;5072283;28;20407;-76
2023/01/28 00:33:08;;;;;;;99.55;28.40;;;0.70;99.90;;;-0.68;100.00;97898.03;5072089;28;20403;-76
2023/01/28 00:35:34;;;;;;;90.93;27.42;;;0.70;99.90;;;-0.66;100.00;97899.47;5071924;28;20403;-76
2023/01/28 00:38:03;;;;;;;89.75;27.55;;;0.70;99.90;;;-0.66;100.00;97889.06;5071997;28;20399;-76
2023/01/28 00:40:29;;;;;;;91.40;27.33;;;0.70;99.90;;;-0.64;100.00;97883.72;5072109;28;20460;-76
2023/01/28 00:42:54;;;;;;;89.57;27.20;;;0.70;99.90;;;-0.65;100.00;97885.50;5071966;28;20396;-76
2023/01/28 00:45:20;;;;;;;97.10;29.07;;;0.70;99.90;;;-0.68;100.00;97879.84;5070940;28;20402;-76
2023/01/28 00:47:47;;;;;;;85.55;26.33;;;0.70;99.90;;;-0.67;100.00;97881.44;5071895;28;20506;-75
2023/01/28 00:50:15;;;;;;;95.05;27.75;;;0.70;99.90;;;-0.68;100.00;97883.25;5071895;28;20410;-76
2023/01/28 00:52:41;;;;;;;87.83;26.53;;;0.70;99.90;;;-0.67;100.00;97892.63;5071724;28;20412;-75
2023/01/28 00:55:08;;;;;;;86.35;26.20;;;0.70;99.90;;;-0.64;100.00;97884.53;5071658;28;20803;-76
2023/01/28 00:57:33;;;;;;;93.85;27.42;;;0.70;99.90;;;-0.62;100.00;97885.16;5071456;28;20403;-76
2023/01/28 00:59:59;;;;;;;96.45;26.95;;;0.70;99.90;;;-0.64;100.00;97892.31;5071620;28;20406;-76
2023/01/28 01:02:25;;;;;;;87.65;25.88;;;0.70;99.90;;;-0.65;100.00;97887.28;5071677;28;20893;-75
2023/01/28 01:04:58;;;;;;;97.47;27.95;;;0.70;99.90;;;-0.67;100.00;97884.03;5071481;28;20777;-75
2023/01/28 01:07:33;;;;;;;92.20;26.00;;;0.70;99.90;;;-0.65;100.00;97882.09;5071375;28;20427;-75
2023/01/28 01:10:00;;;;;;;85.68;24.63;;;0.70;99.90;;;-0.65;100.00;97879.47;5071681;28;20887;-75
2023/01/28 01:12:26;;;;;;;81.78;25.23;;;0.70;99.90;;;-0.65;100.00;97882.91;5071366;28;20402;-75
2023/01/28 01:14:52;;;;;;;84.60;24.23;;;0.70;99.90;;;-0.64;100.00;97875.91;5071279;28;20404;-76
2023/01/28 01:17:19;;;;;;;85.82;25.23;;;0.70;99.90;;;-0.64;100.00;97881.09;5071093;28;20396;-76
2023/01/28 01:19:44;;;;;;;93.60;25.90;;;0.70;99.90;;;-0.62;100.00;97882.56;5071325;28;20410;-76
2023/01/28 01:22:10;;;;;;;77.47;24.65;;;0.70;99.90;;;-0.62;100.00;97887.78;5071196;28;20826;-76
2023/01/28 01:24:38;;;;;;;85.75;26.08;;;0.70;99.90;;;-0.66;100.00;97896.88;5070893;28;20412;-75
2023/01/28 01:27:04;;;;;;;87.88;25.20;;;0.70;99.90;;;-0.65;100.00;97895.06;5070772;28;20415;-76
2023/01/28 01:29:32;;;;;;;84.00;23.83;;;0.70;99.90;;;-0.64;100.00;97896.69;5071131;28;20916;-75
2023/01/28 01:31:58;;;;;;;90.50;25.92;;;0.70;99.90;;;-0.63;100.00;97891.34;5071013;28;20402;-75
2023/01/28 01:34:24;;;;;;;80.80;24.60;;;0.70;99.90;;;-0.62;100.00;97902.56;5070407;28;20459;-75
2023/01/28 01:36:50;;;;;;;80.43;24.35;;;0.70;99.90;;;-0.62;100.00;97897.34;5068977;28;20761;-76
2023/01/28 01:39:16;;;;;;;83.18;23.75;;;0.70;99.90;;;-0.61;100.00;97898.97;5062352;28;20415;-75
2023/01/28 01:41:44;;;;;;;80.63;24.80;;;0.70;99.90;;;-0.61;100.00;97899.78;5070994;28;20456;-76
2023/01/28 01:44:53;;;;;;;80.90;24.45;;;0.70;99.90;;;-0.60;100.00;97900.59;5070693;28;20403;-76
2023/01/28 01:47:22;;;;;;;88.00;25.33;;;0.80;99.90;;;-0.61;100.00;97902.41;5070561;28;20796;-76
2023/01/28 01:49:49;;;;;;;82.93;24.00;;;0.80;99.90;;;-0.59;100.00;97895.22;5070626;28;20953;-75
2023/01/28 01:52:18;;;;;;;78.50;24.90;;;0.70;99.90;;;-0.60;100.00;97904.00;5070551;28;20431;-76
2023/01/28 01:54:51;;;;;;;77.78;25.80;;;0.80;99.90;;;-0.61;100.00;97899.78;5070526;28;20427;-75
2023/01/28 01:57:26;;;;;;;80.70;25.00;;;0.70;99.90;;;-0.61;100.00;97904.19;5070354;28;20857;-76
2023/01/28 01:59:52;;;;;;;77.63;24.42;;;0.70;99.90;;;-0.65;100.00;97908.88;5069573;28;20746;-76
2023/01/28 02:02:18;;;;;;;86.65;25.65;;;0.70;99.90;;;-0.64;100.00;97907.09;5070706;28;20833;-76
2023/01/28 02:04:44;;;;;;;78.85;24.73;;;0.70;99.90;;;-0.66;100.00;97906.44;5070466;28;20981;-75
2023/01/28 02:07:14;;;;;;;79.18;23.92;;;0.70;99.90;;;-0.65;100.00;97908.06;5070281;28;20407;-75
2023/01/28 02:09:41;;;;;;;78.35;24.35;;;0.70;99.90;;;-0.65;100.00;97908.06;5070586;28;20413;-75
2023/01/28 02:12:11;;;;;;;81.55;23.70;;;0.70;99.90;;;-0.64;100.00;97907.09;5070482;28;20442;-76
2023/01/28 02:14:42;;;;;;;79.70;23.97;;;0.70;99.90;;;-0.65;100.00;97903.69;5070379;28;20892;-76
2023/01/28 02:17:09;;;;;;;81.22;25.58;;;0.70;99.90;;;-0.66;100.00;97896.06;5070277;28;20407;-75
2023/01/28 02:19:40;;;;;;;87.85;26.40;;;0.70;99.90;;;-0.68;100.00;97898.03;5070286;28;20434;-75
2023/01/28 02:23:11;;;;;;;73.38;24.02;;;0.70;99.90;;;-0.69;100.00;97902.41;5070432;28;20407;-76
2023/01/28 02:26:42;;;;;;;70.95;23.10;;;0.70;99.90;;;-0.67;100.00;97903.03;5070091;28;20399;-75
2023/01/28 02:29:19;;;;;;;74.37;23.53;;;0.70;99.90;;;-0.65;100.00;97908.06;5054526;28;20420;-75
2023/01/28 02:31:52;;;;;;;76.50;23.23;;;0.70;99.90;;;-0.65;100.00;97911.50;5070298;28;20806;-75
2023/01/28 02:34:27;;;;;;;79.60;23.10;;;0.70;99.90;;;-0.62;100.00;97910.34;5070119;28;20438;-75
2023/01/28 02:36:57;;;;;;;72.55;21.95;;;0.70;99.90;;;-0.61;100.00;97915.41;5070158;28;20406;-75
2023/01/28 02:39:29;;;;;;;68.07;22.77;;;0.70;99.90;;;-0.61;100.00;97914.59;5070277;28;20789;-75
2023/01/28 02:41:59;;;;;;;70.50;22.77;;;0.70;99.90;;;-0.60;100.00;97903.22;5070252;28;20444;-75
2023/01/28 02:44:26;;;;;;;72.28;22.58;;;0.70;99.90;;;-0.62;100.00;97912.97;5070097;28;20400;-76
2023/01/28 02:49:42;;;;;;;67.45;20.80;;;0.70;99.90;;;-0.59;100.00;97912.59;5070046;28;20899;-76
2023/01/28 02:55:26;;;;;;;71.95;21.50;;;0.80;99.90;;;-0.58;100.00;97916.81;5070015;28;20761;-75
2023/01/28 02:58:05;;;;;;;71.07;22.23;;;0.80;99.90;;;-0.60;100.00;97916.22;5069804;28;20431;-75
2023/01/28 03:00:43;;;;;;;66.45;21.17;;;0.80;99.90;;;-0.59;100.00;97918.63;5068762;28;20406;-76
2023/01/28 03:03:19;;;;;;;67.57;22.27;;;0.80;99.90;;;-0.60;100.00;97921.41;5069928;28;20803;-75
2023/01/28 03:06:05;;;;;;;71.32;22.48;;;0.70;99.90;;;-0.59;100.00;97921.22;5069620;28;20892;-75
2023/01/28 03:36:54;;;;;;;106.38;31.98;;;0.80;99.90;;;-0.58;100.00;97922.03;5073123;28;20776;-76
2023/01/28 03:39:24;;;;;;;104.90;31.00;;;0.80;99.90;;;-0.59;100.00;97917.81;5073196;28;20726;-75
2023/01/28 03:41:59;;;;;;;101.07;30.55;;;0.80;99.90;;;-0.58;100.00;97922.84;5073366;28;20733;-75
2023/01/28 03:47:11;;;;;;;100.63;28.77;;;0.80;99.90;;;-0.56;100.00;97936.50;5073106;28;20810;-75
2023/01/28 03:49:40;;;;;;;109.38;31.95;;;0.80;99.90;;;-0.56;100.00;97946.06;5072911;28;20400;-76
2023/01/28 03:52:07;;;;;;;104.53;30.90;;;0.80;99.90;;;-0.57;100.00;97941.84;5072927;28;20452;-75
2023/01/28 03:54:33;;;;;;;107.30;30.90;;;0.80;99.90;;;-0.57;100.00;97947.06;5072759;28;20392;-75
2023/01/28 03:56:58;;;;;;;113.72;32.40;;;0.80;99.90;;;-0.56;100.00;97938.28;5072765;28;20777;-75
2023/01/28 03:59:24;;;;;;;117.93;34.17;;;0.80;99.90;;;-0.58;100.00;97941.03;5072792;28;20406;-75
2023/01/28 04:01:50;;;;;;;130.85;34.45;;;0.80;99.90;;;-0.58;100.00;97937.63;5072758;28;20760;-75
2023/01/28 04:04:22;;;;;;;130.37;34.57;;;0.80;99.90;;;-0.59;100.00;97936.00;5072428;28;20426;-75
2023/01/28 04:06:50;;;;;;;111.20;33.60;;;0.80;99.90;;;-0.57;100.00;97941.84;5072547;28;20396;-75
2023/01/28 04:09:16;;;;;;;120.43;34.80;;;0.80;99.90;;;-0.56;100.00;97940.88;5072575;28;20400;-76
2023/01/28 04:11:43;;;;;;;114.97;34.38;;;0.80;99.90;;;-0.56;100.00;97928.69;5072549;28;20482;-76
2023/01/28 04:14:09;;;;;;;125.82;34.90;;;0.80;99.90;;;-0.56;100.00;97941.69;5072506;28;20403;-76
2023/01/28 04:16:35;;;;;;;119.82;35.72;;;0.80;99.90;;;-0.56;100.00;97928.69;5072397;28;20395;-76
2023/01/28 04:19:01;;;;;;;122.90;35.70;;;0.80;99.90;;;-0.55;100.00;97938.13;5088017;28;20466;-76
2023/01/28 04:21:27;;;;;;;125.95;35.42;;;0.80;99.90;;;-0.55;100.00;97943.31;5071259;28;20410;-76
2023/01/28 04:23:54;;;;;;;128.80;36.90;;;0.80;99.90;;;-0.55;100.00;97947.69;5072233;28;20773;-76
2023/01/28 04:26:20;;;;;;;123.13;35.45;;;0.80;99.90;;;-0.54;100.00;97950.16;5072235;28;20411;-76
2023/01/28 04:28:46;;;;;;;132.67;36.90;;;0.80;99.90;;;-0.52;100.00;97947.34;5072147;28;20415;-76
2023/01/28 04:31:12;;;;;;;142.25;39.38;;;0.80;99.90;;;-0.51;100.00;97955.00;5071035;28;20403;-76
2023/01/28 04:33:37;;;;;;;132.03;37.43;;;0.80;99.90;;;-0.51;100.00;97962.78;5072089;28;20487;-75
2023/01/28 04:36:04;;;;;;;142.65;39.30;;;0.80;99.90;;;-0.52;100.00;97961.16;5072129;28;20776;-75
2023/01/28 04:38:30;;;;;;;145.73;40.17;;;0.80;99.90;;;-0.52;100.00;97961.16;5072102;28;20428;-76
2023/01/28 04:40:57;;;;;;;140.15;39.63;;;0.80;99.90;;;-0.52;100.00;97960.34;5072017;28;20840;-75
2023/01/28 04:43:23;;;;;;;135.98;39.50;;;0.80;99.90;;;-0.51;100.00;97964.59;5072003;28;20407;-75
2023/01/28 04:45:50;;;;;;;144.10;41.33;;;0.80;99.90;;;-0.51;100.00;97968.00;5071648;28;20430;-75
2023/01/28 04:48:16;;;;;;;142.70;39.50;;;0.80;99.90;;;-0.50;100.00;97966.22;5071649;28;20415;-75
2023/01/28 04:50:42;;;;;;;140.67;39.60;;;0.90;99.90;;;-0.50;100.00;97972.22;5071883;28;20973;-76
2023/01/28 04:53:09;;;;;;;135.40;38.65;;;0.90;99.90;;;-0.47;100.00;97968.50;5071764;28;20753;-76
2023/01/28 04:55:35;;;;;;;160.25;42.60;;;0.90;99.90;;;-0.48;100.00;97978.06;5070412;28;20403;-75
2023/01/28 04:58:03;;;;;;;138.57;38.30;;;0.90;99.90;;;-0.49;100.00;97968.66;5071558;28;20395;-76
2023/01/28 05:00:29;;;;;;;133.82;37.92;;;0.90;99.90;;;-0.47;100.00;97971.09;5071759;28;21100;-75
2023/01/28 05:02:55;;;;;;;134.98;38.35;;;0.90;99.90;;;-0.48;100.00;97978.06;5071620;28;20415;-75
2023/01/28 05:05:21;;;;;;;146.63;40.20;;;0.90;99.90;;;-0.48;100.00;97980.69;5069805;28;20407;-75
2023/01/28 05:07:51;;;;;;;143.45;38.97;;;0.90;99.90;;;-0.49;100.00;97980.84;5071335;28;20499;-78
2023/01/28 05:10:18;;;;;;;146.00;39.75;;;0.90;99.90;;;-0.48;100.00;97977.25;5071576;28;20478;-76
2023/01/28 05:12:44;;;;;;;136.50;37.65;;;0.90;99.90;;;-0.49;100.00;97980.84;5071472;28;20407;-76
2023/01/28 05:15:11;;;;;;;154.93;39.28;;;0.90;99.90;;;-0.49;100.00;97986.03;5069985;28;20438;-75
2023/01/28 05:17:39;;;;;;;146.80;39.05;;;0.90;99.90;;;-0.47;100.00;97978.88;5070532;28;20450;-76
2023/01/28 05:20:07;;;;;;;140.20;38.20;;;0.90;99.90;;;-0.47;100.00;97981.50;5066022;28;20417;-75
2023/01/28 05:22:33;;;;;;;143.05;38.38;;;0.90;99.90;;;-0.47;100.00;97990.09;5067533;28;20481;-75
2023/01/28 05:25:00;;;;;;;142.00;38.20;;;0.90;99.90;;;-0.47;100.00;97989.28;5066148;28;20450;-76
2023/01/28 05:27:26;;;;;;;139.27;37.08;;;0.90;99.90;;;-0.47;100.00;97984.91;5065171;28;20496;-75
2023/01/28 05:29:52;;;;;;;139.05;37.83;;;0.90;99.90;;;-0.47;100.00;97987.50;5066529;28;20406;-76
2023/01/28 05:32:22;;;;;;;152.07;39.47;;;0.90;99.90;;;-0.47;100.00;97989.28;5068451;28;20469;-75
2023/01/28 05:34:48;;;;;;;148.10;39.10;;;0.90;99.90;;;-0.47;100.00;97984.09;5067892;28;20395;-76
2023/01/28 05:37:14;;;;;;;151.57;38.88;;;0.90;99.90;;;-0.47;100.00;97984.91;5066092;28;20426;-76
2023/01/28 05:39:40;;;;;;;135.10;37.15;;;0.90;99.90;;;-0.46;100.00;97980.50;5070154;28;20396;-76
2023/01/28 05:42:06;;;;;;;135.98;36.60;;;0.90;99.90;;;-0.47;100.00;97987.50;5066997;28;20395;-77
2023/01/28 05:44:32;;;;;;;138.40;37.33;;;0.90;99.90;;;-0.49;100.00;97981.66;5065268;28;20744;-77
2023/01/28 05:46:58;;;;;;;145.60;37.63;;;0.90;99.90;;;-0.51;100.00;97986.19;5068765;28;20408;-77
2023/01/28 05:49:25;;;;;;;143.43;37.08;;;0.90;99.90;;;-0.49;100.00;97978.22;5067085;28;20396;-77
2023/01/28 05:51:51;;;;;;;142.93;38.25;;;0.90;99.90;;;-0.50;100.00;97987.00;5062825;28;20423;-77
2023/01/28 05:54:17;;;;;;;138.83;38.23;;;0.90;99.90;;;-0.50;100.00;97979.22;5066608;28;20502;-77
2023/01/28 05:56:43;;;;;;;139.20;39.72;;;0.90;99.90;;;-0.51;100.00;97987.97;5064843;28;20411;-77
2023/01/28 05:59:11;;;;;;;147.82;38.33;;;0.80;99.90;;;-0.54;100.00;97989.16;5068291;28;20419;-77
2023/01/28 06:01:40;;;;;;;142.68;39.88;;;0.80;99.90;;;-0.55;100.00;97989.31;5066972;28;20415;-77
2023/01/28 06:04:09;;;;;;;151.73;40.75;;;0.80;99.90;;;-0.56;100.00;97987.69;5065706;28;20534;-76
2023/01/28 06:06:36;;;;;;;133.80;37.33;;;0.80;99.90;;;-0.58;100.00;97998.25;5069622;28;20408;-77
2023/01/28 06:09:08;;;;;;;144.48;37.55;;;0.80;99.90;;;-0.59;100.00;97996.63;5069697;28;20453;-76
2023/01/28 06:11:34;;;;;;;134.77;37.30;;;0.80;99.90;;;-0.59;100.00;97996.63;5065160;28;20410;-74
2023/01/28 06:14:00;;;;;;;139.88;38.63;;;0.80;99.90;;;-0.60;100.00;98007.19;5066345;28;20760;-77
2023/01/28 06:16:33;;;;;;;148.88;38.60;;;0.80;99.90;;;-0.60;100.00;97999.41;5063237;28;20796;-77
2023/01/28 06:19:00;;;;;;;140.23;36.70;;;0.80;99.90;;;-0.62;100.00;98002.16;5069267;28;20470;-75
2023/01/28 06:21:26;;;;;;;138.23;37.35;;;0.80;99.90;;;-0.60;100.00;98015.78;5066548;28;20407;-77
2023/01/28 06:23:53;;;;;;;130.27;36.03;;;0.80;99.90;;;-0.60;100.00;98020.19;5063618;28;20415;-76
2023/01/28 06:26:19;;;;;;;128.65;36.45;;;0.80;99.90;;;-0.60;100.00;98028.78;5075990;22;20429;-81
2023/01/28 06:28:45;;;;;;;121.82;34.28;;;0.80;99.90;;;-0.59;100.00;98033.00;5050098;28;20920;-78
2023/01/28 06:31:10;;;;;;;131.48;36.08;;;0.80;99.90;;;-0.59;100.00;98029.59;5050211;28;20436;-77
2023/01/28 06:33:36;;;;;;;122.97;35.17;;;0.80;99.90;;;-0.58;100.00;98034.63;5049405;28;20408;-77
2023/01/28 06:36:03;;;;;;;126.45;35.10;;;0.80;99.90;;;-0.56;100.00;98044.88;5046456;28;20409;-77
2023/01/28 06:38:29;;;;;;;125.15;34.90;;;0.80;99.90;;;-0.54;100.00;98045.53;5057301;28;20404;-77
2023/01/28 06:40:57;;;;;;;141.57;37.50;;;0.80;99.90;;;-0.53;100.00;98047.16;5059686;28;20467;-77
2023/01/28 06:43:27;;;;;;;131.02;35.42;;;0.80;99.90;;;-0.54;100.00;98040.34;5050397;28;20405;-77
2023/01/28 06:45:53;;;;;;;133.48;36.65;;;0.80;99.90;;;-0.53;100.00;98044.56;5053482;28;20901;-78
2023/01/28 06:48:19;;;;;;;124.50;35.90;;;0.80;99.90;;;-0.54;100.00;98043.75;5053779;28;20521;-79
2023/01/28 06:50:46;;;;;;;126.25;34.97;;;0.80;99.90;;;-0.52;100.00;98046.97;5054173;28;20401;-79
2023/01/28 06:53:12;;;;;;;130.32;35.03;;;0.80;99.90;;;-0.52;100.00;98046.97;5053942;28;20866;-77
2023/01/28 06:55:39;;;;;;;134.48;35.92;;;0.90;99.90;;;-0.50;100.00;98058.03;5044900;28;20489;-76
2023/01/28 06:58:06;;;;;;;132.82;36.20;;;0.90;99.90;;;-0.49;100.00;98054.47;5051328;28;20465;-77
2023/01/28 07:00:32;;;;;;;134.68;36.53;;;0.90;99.90;;;-0.48;100.00;98060.47;5047468;28;20771;-76
2023/01/28 07:02:58;;;;;;;115.00;33.30;;;0.90;99.90;;;-0.47;100.00;98060.31;5051578;28;20405;-77
2023/01/28 07:05:25;;;;;;;128.65;35.13;;;0.90;99.90;;;-0.47;100.00;98059.50;5052374;28;20428;-78
2023/01/28 07:07:54;;;;;;;125.50;34.22;;;0.90;99.90;;;-0.47;100.00;98060.31;5052393;28;20443;-79
2023/01/28 07:10:20;;;;;;;123.38;36.72;;;0.90;99.90;;;-0.46;100.00;98058.53;5046897;28;20467;-82
2023/01/28 07:12:46;;;;;;;124.13;35.83;;;0.90;99.90;;;-0.48;100.00;98056.09;5053277;28;20417;-79
2023/01/28 07:15:14;;;;;;;128.45;36.70;;;0.90;99.90;;;-0.47;100.00;98062.91;5050706;28;20717;-79
2023/01/28 07:17:57;;;;;;;140.02;37.65;;;0.90;99.90;;;-0.49;100.00;98056.25;5051806;28;20405;-80
2023/01/28 07:20:22;;;;;;;134.02;38.15;;;0.90;99.90;;;-0.46;100.00;98066.34;5048540;28;20405;-80
2023/01/28 07:22:48;;;;;;;140.15;38.10;;;0.90;99.90;;;-0.46;100.00;98081.94;5047335;28;20447;-78
2023/01/28 07:25:28;;;;;;;139.63;37.47;;;0.90;99.90;;;-0.45;100.00;98073.94;5049271;28;20798;-79
2023/01/28 07:27:54;;;;;;;132.55;36.75;;;0.90;99.90;;;-0.44;100.00;98080.78;5046190;28;20413;-79
2023/01/28 07:30:35;;;;;;;127.90;36.30;;;0.90;99.90;;;-0.42;100.00;98076.22;5046484;28;20788;-81
2023/01/28 07:33:04;;;;;;;126.88;36.47;;;0.90;99.90;;;-0.40;100.00;98078.66;5058762;28;20896;-82
2023/01/28 07:35:31;;;;;;;130.15;37.90;;;0.90;99.90;;;-0.45;100.00;98063.53;5050970;28;20398;-81
2023/01/28 07:38:00;;;;;;;133.13;37.00;;;1.00;99.90;;;-0.41;100.00;98072.66;5049756;28;20405;-81
2023/01/28 07:40:27;;;;;;;144.40;39.50;;;1.00;99.90;;;-0.34;100.00;98085.00;5050283;28;20440;-82
2023/01/28 07:42:58;;;;;;;145.30;39.03;;;1.00;99.90;;;-0.34;100.00;98079.78;5048259;28;20505;-82
2023/01/28 07:45:33;;;;;;;126.75;37.35;;;1.00;99.90;;;-0.30;100.00;98089.69;5049789;28;20461;-83
2023/01/28 07:48:02;;;;;;;135.70;38.05;;;1.00;99.90;;;-0.31;100.00;98089.88;5054658;28;20469;-77
2023/01/28 07:50:31;;;;;;;140.23;39.70;;;1.00;99.90;;;-0.27;100.00;98088.56;5050934;28;20405;-78
2023/01/28 07:52:58;;;;;;;134.38;37.92;;;1.10;99.90;;;-0.24;100.00;98088.25;5056850;28;20827;-78
2023/01/28 07:55:25;;;;;;;147.17;40.43;;;1.10;99.90;;;-0.24;100.00;98090.84;5050523;28;20401;-79
2023/01/28 07:57:53;;;;;;;144.32;39.45;;;1.10;99.90;;;-0.23;100.00;98092.47;5040141;28;20403;-78
2023/01/28 08:00:21;;;;;;;131.60;38.78;;;1.10;99.90;;;-0.21;100.00;98093.09;5036572;28;20428;-78
2023/01/28 08:02:53;;;;;;;132.00;39.20;;;1.10;99.90;;;-0.18;100.00;98097.97;5037447;28;20902;-81
2023/01/28 08:05:21;;;;;;;156.67;42.97;;;1.10;99.90;;;-0.17;100.00;98095.22;5053433;28;20905;-79
2023/01/28 08:07:47;;;;;;;150.80;41.00;;;1.20;99.90;;;-0.14;100.00;98107.06;5036204;28;20466;-79
2023/01/28 08:10:15;;;;;;;136.38;38.78;;;1.20;99.90;;;-0.13;100.00;98100.88;5053702;28;20409;-82
2023/01/28 08:12:51;;;;;;;150.07;40.55;;;1.20;99.90;;;-0.11;100.00;98112.75;5053341;28;20416;-85
2023/01/28 08:15:16;;;;;;;134.68;38.38;;;1.20;99.90;;;-0.09;100.00;98105.59;5054210;28;20441;-81
2023/01/28 08:17:42;;;;;;;134.13;39.35;;;1.20;99.90;;;-0.08;100.00;98109.03;5052982;28;20496;-85
2023/01/28 08:20:11;;;;;;;142.93;40.00;;;1.30;99.90;;;-0.07;100.00;98106.22;5054469;28;20409;-82
2023/01/28 08:22:37;;;;;;;157.48;40.53;;;1.30;99.90;;;-0.03;100.00;98109.34;5057800;28;20393;-83
2023/01/28 08:25:03;;;;;;;125.82;37.03;;;1.30;99.90;;;0.00;100.00;98119.41;5052338;28;20871;-75
2023/01/28 08:27:36;;;;;;;142.32;38.28;;;1.30;99.90;;;0.02;100.00;98106.22;5052227;28;20898;-77
2023/01/28 08:30:03;;;;;;;118.23;37.07;;;1.30;99.90;;;0.04;100.00;98112.06;5053347;28;20493;-84
2023/01/28 08:32:30;;;;;;;130.35;39.03;;;1.40;99.90;;;0.04;100.00;98114.69;5058185;28;20413;-83
2023/01/28 08:34:56;;;;;;;125.80;37.50;;;1.30;99.90;;;0.04;100.00;98122.50;5038764;28;20906;-78
2023/01/28 08:37:24;;;;;;;140.90;37.92;;;1.30;99.90;;;0.06;100.00;98120.53;5052426;28;20405;-77
2023/01/28 08:39:51;;;;;;;132.83;37.23;;;1.40;99.90;;;0.07;100.00;98111.75;5062592;28;20419;-80
2023/01/28 08:42:17;;;;;;;119.03;36.27;;;1.40;99.90;;;0.06;100.00;98110.94;5062954;28;20489;-84
2023/01/28 08:44:44;;;;;;;139.00;38.17;;;1.40;99.90;;;0.09;100.00;98109.78;5069320;28;20426;-85
2023/01/28 08:47:11;;;;;;;135.02;36.88;;;1.40;99.90;;;0.11;100.00;98118.25;5066431;28;20447;-85
2023/01/28 08:49:37;;;;;;;127.40;35.00;;;1.40;99.90;;;0.15;100.00;98109.91;5081175;28;20411;-85
2023/01/28 08:52:04;;;;;;;135.80;36.80;;;1.50;99.90;;;0.20;100.00;98118.06;5083603;28;20413;-85
2023/01/28 08:54:32;;;;;;;130.70;36.95;;;1.50;99.90;;;0.26;100.00;98104.34;5081691;28;20434;-83
2023/01/28 08:56:58;;;;;;;139.27;38.30;;;1.50;99.90;;;0.32;100.00;98123.69;5079564;28;20427;-83
2023/01/28 08:59:24;;;;;;;129.90;35.92;;;1.60;99.90;;;0.37;100.00;98127.44;5080343;28;20420;-80
2023/01/28 09:01:50;;;;;;;127.38;35.33;;;1.60;99.90;;;0.42;100.00;98126.13;5064082;28;20415;-82
2023/01/28 09:04:16;;;;;;;131.20;36.67;;;1.70;99.90;;;0.44;100.00;98122.38;5045309;28;20400;-82
2023/01/28 09:06:42;;;;;;;115.53;34.42;;;1.70;99.90;;;0.49;100.00;98130.47;5071165;28;20426;-82
2023/01/28 09:09:08;;;;;;;116.70;34.03;;;1.80;99.90;;;0.54;100.00;98124.75;5072269;28;20422;-82
2023/01/28 09:11:35;;;;;;;128.50;37.90;;;1.80;99.90;;;0.54;100.00;98122.97;5071929;28;20404;-82
2023/01/28 09:14:06;;;;;;;104.70;32.63;;;1.80;99.90;;;0.60;100.00;98121.50;5024955;28;20895;-80
2023/01/28 09:16:32;;;;;;;132.90;38.25;;;1.90;99.90;;;0.65;100.00;98121.78;5046004;28;20661;-82
2023/01/28 09:18:58;;;;;;;117.32;37.22;;;1.90;99.90;;;0.68;100.00;98124.03;5054828;28;20405;-81
2023/01/28 09:21:24;;;;;;;116.13;35.17;;;1.90;99.90;;;0.74;100.00;98125.97;5036312;28;20954;-82
2023/01/28 09:23:50;;;;;;;115.55;34.05;;;2.00;99.90;;;0.78;100.00;98128.06;5044706;28;20413;-82
2023/01/28 09:26:16;;;;;;;109.80;33.67;;;2.10;99.90;;;0.82;100.00;98132.94;5046883;28;20900;-82
2023/01/28 09:28:46;;;;;;;109.72;33.78;;;2.10;99.90;;;0.85;100.00;98136.00;5022185;28;20424;-81
2023/01/28 09:31:12;;;;;;;138.02;37.97;;;2.10;99.90;;;0.84;100.00;98139.59;5044697;28;20775;-82
2023/01/28 09:33:55;;;;;;;144.07;37.00;;;2.10;99.90;;;0.86;100.00;98149.84;5044462;28;20420;-82
2023/01/28 09:36:38;;;;;;;129.02;36.53;;;2.10;99.90;;;0.80;100.00;98145.31;5048163;28;20447;-82
2023/01/28 09:39:04;;;;;;;133.90;36.92;;;2.10;99.90;;;0.83;100.00;98164.03;5040958;28;20392;-81
2023/01/28 09:41:45;;;;;;;114.72;34.97;;;2.10;99.90;;;0.85;100.00;98149.03;5039481;28;20458;-81
2023/01/28 09:44:29;;;;;;;115.20;35.03;;;2.10;99.90;;;0.88;100.00;98148.72;5047337;28;20461;-81
2023/01/28 09:47:01;;;;;;;122.32;36.13;;;2.10;99.90;;;0.86;100.00;98163.69;5046387;28;20397;-82
2023/01/28 09:49:40;;;;;;;130.98;37.83;;;2.10;99.90;;;0.83;100.00;98160.63;5046390;28;20595;-82
2023/01/28 09:52:13;;;;;;;120.45;34.70;;;2.10;99.90;;;0.84;100.00;98165.66;5036320;28;20413;-81
2023/01/28 09:54:44;;;;;;;120.23;35.03;;;2.10;99.90;;;0.90;100.00;98169.41;5049416;28;20480;-82
2023/01/28 09:57:19;;;;;;;125.63;35.97;;;2.10;99.90;;;0.90;100.00;98164.19;5031450;28;20405;-81
2023/01/28 09:59:48;;;;;;;108.85;33.85;;;2.20;99.90;;;0.96;100.00;98163.50;5045702;28;20398;-81
2023/01/28 10:02:43;;;;;;;121.40;33.92;;;2.20;99.90;;;0.97;100.00;98168.53;5043715;28;20417;-81
2023/01/28 10:05:23;;;;;;;119.10;34.30;;;2.20;99.90;;;1.00;100.00;98162.97;5045307;28;20615;-81
2023/01/28 10:08:00;;;;;;;119.28;34.83;;;2.30;99.90;;;1.04;100.00;98174.69;5040539;28;20424;-80
2023/01/28 10:10:33;;;;;;;111.45;35.05;;;2.30;99.90;;;1.01;100.00;98171.59;5037332;28;20415;-81
2023/01/28 10:13:18;;;;;;;123.50;34.72;;;2.30;99.90;;;0.95;100.00;98173.09;5044591;28;20426;-81
2023/01/28 10:16:04;;;;;;;107.25;34.45;;;2.20;99.90;;;0.93;100.00;98159.44;5039391;28;20407;-83
2023/01/28 10:18:38;;;;;;;122.53;35.47;;;2.20;99.90;;;0.89;100.00;98157.34;5043127;28;20420;-82
2023/01/28 10:21:15;;;;;;;119.57;35.85;;;2.20;99.90;;;0.88;100.00;98153.91;5041379;28;20418;-82
2023/01/28 10:23:53;;;;;;;124.63;35.63;;;2.10;99.90;;;0.87;100.00;98152.28;5045142;28;20450;-81
2023/01/28 10:26:28;;;;;;;115.45;36.42;;;2.20;99.90;;;0.96;100.00;98158.28;5033685;28;20414;-82
2023/01/28 10:28:59;;;;;;;116.72;35.50;;;2.20;99.90;;;0.98;100.00;98151.91;5043356;28;20415;-81
2023/01/28 10:31:38;;;;;;;111.57;34.45;;;2.20;99.90;;;1.00;100.00;98149.13;5036490;28;20436;-81
2023/01/28 10:34:04;;;;;;;113.20;33.58;;;2.20;99.90;;;1.05;100.00;98152.03;5048273;28;20409;-81
2023/01/28 10:36:31;;;;;;;104.07;31.05;;;2.30;99.90;;;1.10;100.00;98147.94;5058005;28;20748;-83
2023/01/28 10:38:57;;;;;;;118.90;36.00;;;2.30;99.90;;;1.11;100.00;98149.56;5042474;28;20477;-83
2023/01/28 10:41:25;;;;;;;111.88;33.35;;;2.40;99.90;;;1.12;100.00;98147.75;5037042;28;20444;-80
2023/01/28 10:43:51;;;;;;;100.00;30.60;;;2.30;99.90;;;1.19;100.00;98146.09;5052938;28;20393;-83
2023/01/28 10:46:22;;;;;;;101.85;32.95;;;2.40;99.90;;;1.17;100.00;98146.25;5024498;28;20420;-86
2023/01/28 10:48:58;;;;;;;94.65;30.40;;;2.40;99.90;;;1.24;100.00;98145.56;5045462;28;20460;-86